Time;durP1;ratioP1;P1;durP2;ratioP2;P2;SDS_P1;SDS_P2;PMS_P1;PMS_P2;Temp;Humidity;BMP_temperature;BMP_pressure;BME280_temperature;BME280_humidity;BME280_pressure;Samples;Min_cycle;Max_cycle;Signal;HPM_P1;HPM_P2
2023/02/15 00:01:48;;;;;;;;;38.25;29.75;;;;;;;;5060867;28;51140;-49
2023/02/15 00:04:48;;;;;;;;;33.75;28.25;;;;;;;;5060254;28;51406;-51
2023/02/15 00:07:32;;;;;;;;;36.75;30.25;;;;;;;;5060099;28;51169;-51
2023/02/15 00:10:23;;;;;;;;;45.25;32.00;;;;;;;;5060658;28;51203;-49
2023/02/15 00:15:52;;;;;;;;;32.00;29.75;;;;;;;;4997633;28;51501;-51
2023/02/15 00:18:37;;;;;;;;;40.25;31.50;;;;;;;;4997849;28;51142;-49
2023/02/15 00:21:22;;;;;;;;;35.25;31.00;;;;;;;;4998101;28;51150;-54
2023/02/15 00:24:07;;;;;;;;;39.50;32.00;;;;;;;;4998099;28;51174;-49
2023/02/15 00:26:52;;;;;;;;;35.75;30.50;;;;;;;;4997839;28;51168;-54
2023/02/15 00:29:36;;;;;;;;;32.00;28.25;;;;;;;;4997571;28;51491;-51
2023/02/15 00:32:20;;;;;;;;;41.50;31.00;;;;;;;;4997709;28;50967;-51
2023/02/15 00:35:04;;;;;;;;;35.25;29.00;;;;;;;;4997823;28;51601;-52
2023/02/15 00:37:48;;;;;;;;;37.75;30.25;;;;;;;;4997386;28;51137;-50
2023/02/15 00:40:33;;;;;;;;;31.00;28.25;;;;;;;;4997321;28;51129;-52
2023/02/15 00:43:16;;;;;;;;;35.00;30.25;;;;;;;;4997582;28;51009;-50
2023/02/15 00:46:02;;;;;;;;;37.50;32.00;;;;;;;;4997441;28;51262;-49
2023/02/15 00:48:45;;;;;;;;;36.75;31.25;;;;;;;;4997375;28;51183;-47
2023/02/15 00:51:30;;;;;;;;;35.25;31.50;;;;;;;;4997790;28;51091;-51
2023/02/15 00:54:13;;;;;;;;;40.75;29.25;;;;;;;;5039624;28;51540;-51
2023/02/15 00:56:58;;;;;;;;;28.50;26.00;;;;;;;;5039324;28;51138;-52
2023/02/15 00:59:42;;;;;;;;;25.25;22.50;;;;;;;;5051129;28;51054;-51
2023/02/15 01:02:27;;;;;;;;;37.75;32.50;;;;;;;;5059973;28;51098;-51
2023/02/15 01:05:11;;;;;;;;;38.25;29.50;;;;;;;;5059620;28;51436;-51
2023/02/15 01:07:56;;;;;;;;;35.50;30.00;;;;;;;;5058789;28;51112;-51
2023/02/15 01:10:40;;;;;;;;;38.50;29.50;;;;;;;;5059699;28;51109;-49
2023/02/15 01:13:25;;;;;;;;;45.25;31.50;;;;;;;;5054137;28;51072;-51
2023/02/15 01:16:09;;;;;;;;;37.50;30.50;;;;;;;;5059862;28;51986;-53
2023/02/15 01:18:57;;;;;;;;;34.50;30.00;;;;;;;;5059200;28;50999;-48
2023/02/15 01:21:41;;;;;;;;;34.25;28.75;;;;;;;;5059266;28;51125;-52
2023/02/15 01:24:26;;;;;;;;;34.75;31.00;;;;;;;;5059452;28;51138;-51
2023/02/15 01:27:10;;;;;;;;;39.75;32.25;;;;;;;;5059491;28;51107;-48
2023/02/15 01:29:54;;;;;;;;;33.25;31.00;;;;;;;;5059046;28;51045;-54
2023/02/15 01:32:40;;;;;;;;;40.75;31.50;;;;;;;;5043625;28;51598;-50
2023/02/15 01:35:24;;;;;;;;;38.00;30.75;;;;;;;;5058611;28;51462;-51
2023/02/15 01:38:08;;;;;;;;;37.75;31.00;;;;;;;;5058859;28;51079;-48
2023/02/15 01:40:53;;;;;;;;;35.75;29.75;;;;;;;;5059342;28;51128;-53
2023/02/15 01:43:41;;;;;;;;;38.25;31.75;;;;;;;;5059202;28;51548;-51
2023/02/15 01:46:33;;;;;;;;;35.50;32.75;;;;;;;;5039919;28;51218;-49
2023/02/15 01:49:19;;;;;;;;;33.50;30.00;;;;;;;;5039247;28;51607;-49
2023/02/15 01:52:03;;;;;;;;;41.25;34.00;;;;;;;;5039118;28;51023;-52
2023/02/15 01:54:48;;;;;;;;;41.25;33.75;;;;;;;;5038885;28;51554;-51
2023/02/15 01:57:32;;;;;;;;;42.25;33.50;;;;;;;;5038826;28;51108;-50
2023/02/15 02:00:17;;;;;;;;;40.75;35.00;;;;;;;;5038653;28;51098;-47
2023/02/15 02:03:01;;;;;;;;;43.75;34.75;;;;;;;;5038607;28;51082;-51
2023/02/15 02:05:46;;;;;;;;;39.00;33.00;;;;;;;;5038994;28;51107;-50
2023/02/15 02:08:31;;;;;;;;;41.50;35.50;;;;;;;;5057723;28;51125;-48
2023/02/15 02:11:15;;;;;;;;;45.00;37.00;;;;;;;;5058892;28;51200;-50
2023/02/15 02:14:00;;;;;;;;;47.25;35.75;;;;;;;;5041519;28;52013;-48
2023/02/15 02:16:44;;;;;;;;;44.50;37.00;;;;;;;;5059143;28;51029;-53
2023/02/15 02:19:46;;;;;;;;;44.25;35.50;;;;;;;;5060000;28;51499;-53
2023/02/15 02:22:33;;;;;;;;;50.25;38.75;;;;;;;;5062477;28;51024;-51
2023/02/15 02:25:20;;;;;;;;;44.75;34.00;;;;;;;;5062353;28;51661;-51
2023/02/15 02:28:10;;;;;;;;;42.75;33.75;;;;;;;;5062017;28;51166;-51
2023/02/15 02:31:03;;;;;;;;;46.50;35.50;;;;;;;;5058643;28;51144;-53
2023/02/15 02:34:05;;;;;;;;;42.50;33.00;;;;;;;;5057096;28;51365;-50
2023/02/15 02:36:58;;;;;;;;;43.75;35.25;;;;;;;;5061996;28;51137;-48
2023/02/15 02:39:42;;;;;;;;;47.00;36.75;;;;;;;;5062178;28;51074;-49
2023/02/15 02:42:35;;;;;;;;;45.00;39.00;;;;;;;;5062314;28;51459;-53
2023/02/15 02:45:24;;;;;;;;;46.50;37.25;;;;;;;;5061720;28;51077;-49
2023/02/15 02:48:12;;;;;;;;;51.25;41.00;;;;;;;;5061974;28;51098;-51
2023/02/15 02:50:56;;;;;;;;;50.75;38.75;;;;;;;;5062133;28;51160;-51
2023/02/15 02:53:40;;;;;;;;;49.50;37.25;;;;;;;;5061870;28;51119;-52
2023/02/15 02:56:39;;;;;;;;;48.25;38.50;;;;;;;;5061982;28;51113;-51
2023/02/15 02:59:32;;;;;;;;;50.00;39.00;;;;;;;;5061500;28;51405;-51
2023/02/15 03:02:20;;;;;;;;;45.50;35.75;;;;;;;;5061978;28;51400;-50
2023/02/15 03:05:07;;;;;;;;;47.25;39.25;;;;;;;;5061654;28;51142;-53
2023/02/15 03:07:53;;;;;;;;;47.50;38.75;;;;;;;;5061497;28;51085;-47
2023/02/15 03:10:39;;;;;;;;;43.25;36.25;;;;;;;;5041378;28;51170;-54
2023/02/15 03:13:23;;;;;;;;;39.50;34.50;;;;;;;;5041103;28;51031;-48
2023/02/15 03:16:27;;;;;;;;;46.25;37.00;;;;;;;;5041024;28;51506;-56
2023/02/15 03:19:13;;;;;;;;;43.00;34.75;;;;;;;;5057814;28;51136;-48
2023/02/15 03:22:13;;;;;;;;;46.75;36.75;;;;;;;;5061647;28;52097;-51
2023/02/15 03:25:20;;;;;;;;;40.75;35.25;;;;;;;;5061172;28;51183;-51
2023/02/15 03:28:09;;;;;;;;;47.00;37.50;;;;;;;;5060809;28;51095;-55
2023/02/15 03:30:58;;;;;;;;;45.25;34.00;;;;;;;;5060821;28;50982;-46
2023/02/15 03:33:48;;;;;;;;;45.50;36.50;;;;;;;;5061291;28;51117;-49
2023/02/15 03:36:42;;;;;;;;;48.00;35.75;;;;;;;;5060664;28;51054;-50
2023/02/15 03:39:29;;;;;;;;;45.75;35.75;;;;;;;;5060941;28;51515;-51
2023/02/15 03:42:25;;;;;;;;;44.75;36.00;;;;;;;;5056956;28;51513;-49
2023/02/15 03:45:11;;;;;;;;;44.75;36.00;;;;;;;;5056456;28;51078;-54
2023/02/15 03:47:56;;;;;;;;;41.50;33.00;;;;;;;;5060091;28;51497;-48
2023/02/15 04:03:39;;;;;;;;;50.50;38.00;;;;;;;;5060448;28;51487;-52
2023/02/15 04:06:24;;;;;;;;;45.00;37.00;;;;;;;;5059938;28;51100;-54
2023/02/15 04:12:11;;;;;;;;;46.75;38.75;;;;;;;;5060231;28;51097;-53
2023/02/15 04:17:58;;;;;;;;;46.25;38.75;;;;;;;;5060132;28;51055;-50
2023/02/15 04:26:52;;;;;;;;;47.50;36.75;;;;;;;;5060293;28;51002;-52
2023/02/15 04:29:36;;;;;;;;;49.75;39.75;;;;;;;;5059865;28;51555;-49
2023/02/15 04:32:21;;;;;;;;;46.50;39.00;;;;;;;;5060276;28;51152;-48
2023/02/15 04:35:06;;;;;;;;;49.25;38.50;;;;;;;;5060083;28;51660;-50
2023/02/15 04:37:50;;;;;;;;;49.75;39.00;;;;;;;;5059785;28;51293;-49
2023/02/15 04:40:34;;;;;;;;;50.00;40.75;;;;;;;;5060168;28;51029;-51
2023/02/15 04:43:19;;;;;;;;;45.00;35.50;;;;;;;;5059352;28;51121;-50
2023/02/15 04:46:04;;;;;;;;;46.50;36.50;;;;;;;;5059687;28;51125;-52
2023/02/15 04:48:48;;;;;;;;;48.50;39.25;;;;;;;;5059742;28;51211;-55
2023/02/15 04:51:32;;;;;;;;;41.50;35.25;;;;;;;;5060052;28;51069;-54
2023/02/15 04:54:17;;;;;;;;;48.75;38.75;;;;;;;;5059629;28;51002;-51
2023/02/15 04:57:01;;;;;;;;;52.25;39.00;;;;;;;;5047782;28;51128;-48
2023/02/15 04:59:46;;;;;;;;;49.50;37.25;;;;;;;;5039234;28;51575;-50
2023/02/15 05:02:30;;;;;;;;;47.75;35.75;;;;;;;;5054773;28;51172;-50
2023/02/15 05:05:15;;;;;;;;;46.75;37.00;;;;;;;;5054999;28;51227;-52
2023/02/15 05:07:59;;;;;;;;;44.75;36.25;;;;;;;;5038735;28;51509;-54
2023/02/15 05:10:43;;;;;;;;;49.75;38.25;;;;;;;;5039233;28;51673;-50
2023/02/15 05:13:28;;;;;;;;;46.50;38.25;;;;;;;;5039173;28;51089;-47
2023/02/15 05:16:12;;;;;;;;;45.25;36.50;;;;;;;;5057773;28;51082;-52
2023/02/15 05:18:57;;;;;;;;;44.00;36.00;;;;;;;;5059071;28;50993;-51
2023/02/15 05:21:41;;;;;;;;;44.50;35.75;;;;;;;;5059396;28;51142;-48
2023/02/15 05:30:31;;;;;;;;;42.25;33.25;;;;;;;;5059684;28;51232;-52
2023/02/15 05:33:15;;;;;;;;;53.00;40.00;;;;;;;;5056961;28;51342;-51
2023/02/15 05:36:00;;;;;;;;;47.00;39.75;;;;;;;;5059021;28;51689;-48
2023/02/15 05:38:44;;;;;;;;;46.00;37.75;;;;;;;;5059185;28;51077;-50
2023/02/15 05:41:28;;;;;;;;;53.25;40.50;;;;;;;;5039596;28;51107;-52
2023/02/15 05:44:13;;;;;;;;;51.50;40.75;;;;;;;;5038682;28;51359;-50
2023/02/15 05:46:57;;;;;;;;;50.00;40.50;;;;;;;;5039142;28;51207;-55
2023/02/15 05:49:42;;;;;;;;;54.25;43.25;;;;;;;;5054544;28;51611;-48
2023/02/15 05:52:26;;;;;;;;;56.25;44.75;;;;;;;;5059214;28;51007;-51
2023/02/15 05:55:11;;;;;;;;;60.75;46.50;;;;;;;;5061661;28;51130;-48
2023/02/15 05:57:55;;;;;;;;;61.25;47.50;;;;;;;;5062617;28;51343;-52
2023/02/15 06:00:39;;;;;;;;;60.50;47.25;;;;;;;;5063237;28;52182;-49
2023/02/15 06:03:25;;;;;;;;;64.25;47.75;;;;;;;;5052909;28;51288;-47
2023/02/15 06:06:10;;;;;;;;;72.00;55.50;;;;;;;;5042472;28;51163;-52
2023/02/15 06:08:54;;;;;;;;;65.25;50.75;;;;;;;;5045318;28;51067;-51
2023/02/15 06:11:40;;;;;;;;;67.50;50.50;;;;;;;;5042510;28;51175;-52
2023/02/15 06:14:25;;;;;;;;;65.50;49.75;;;;;;;;5060480;28;51630;-52
2023/02/15 06:17:09;;;;;;;;;62.00;47.75;;;;;;;;5062302;28;51117;-50
2023/02/15 06:19:54;;;;;;;;;62.00;48.00;;;;;;;;5057931;28;50998;-52
2023/02/15 06:22:38;;;;;;;;;61.50;47.25;;;;;;;;5042131;28;51146;-52
2023/02/15 06:25:24;;;;;;;;;65.50;48.75;;;;;;;;5042137;28;51190;-51
2023/02/15 06:28:08;;;;;;;;;91.25;75.00;;;;;;;;5041713;28;51233;-52
2023/02/15 06:30:53;;;;;;;;;70.25;56.25;;;;;;;;5058169;28;51151;-51
2023/02/15 06:33:38;;;;;;;;;68.00;51.75;;;;;;;;5054967;28;51279;-52
2023/02/15 06:36:22;;;;;;;;;64.25;50.25;;;;;;;;5041688;28;51233;-51
2023/02/15 06:39:06;;;;;;;;;66.00;52.25;;;;;;;;5053553;28;51019;-51
2023/02/15 06:41:51;;;;;;;;;64.00;48.50;;;;;;;;5056770;28;51108;-53
2023/02/15 06:44:35;;;;;;;;;72.00;56.75;;;;;;;;5048375;28;51581;-52
2023/02/15 06:47:19;;;;;;;;;68.75;52.50;;;;;;;;5047219;28;51417;-52
2023/02/15 06:50:05;;;;;;;;;62.25;49.75;;;;;;;;5046425;28;51722;-52
2023/02/15 06:52:49;;;;;;;;;56.50;43.25;;;;;;;;5046455;28;51070;-51
2023/02/15 06:55:33;;;;;;;;;73.00;60.25;;;;;;;;5047896;28;51168;-53
2023/02/15 06:58:18;;;;;;;;;69.75;53.25;;;;;;;;5046971;28;51408;-47
2023/02/15 07:01:03;;;;;;;;;71.00;54.00;;;;;;;;5045733;28;51202;-49
2023/02/15 07:03:47;;;;;;;;;66.00;52.50;;;;;;;;5045114;28;51655;-54
2023/02/15 07:06:35;;;;;;;;;70.25;57.00;;;;;;;;5044942;28;51167;-50
2023/02/15 07:09:19;;;;;;;;;69.25;51.50;;;;;;;;5047859;28;51145;-49
2023/02/15 07:15:07;;;;;;;;;72.25;60.25;;;;;;;;5049971;28;51562;-50
2023/02/15 07:17:52;;;;;;;;;67.50;50.00;;;;;;;;5052012;28;51454;-54
2023/02/15 07:20:37;;;;;;;;;68.25;52.00;;;;;;;;5050935;28;51029;-53
2023/02/15 07:23:21;;;;;;;;;65.75;50.75;;;;;;;;5045022;28;51176;-49
2023/02/15 07:26:06;;;;;;;;;68.75;52.50;;;;;;;;5042164;28;51386;-49
2023/02/15 07:28:50;;;;;;;;;65.00;51.50;;;;;;;;5045378;28;51251;-53
2023/02/15 07:31:37;;;;;;;;;64.00;50.00;;;;;;;;5042856;28;51150;-49
2023/02/15 07:34:21;;;;;;;;;64.50;51.25;;;;;;;;5041585;28;51177;-47
2023/02/15 07:37:06;;;;;;;;;63.00;49.25;;;;;;;;5043395;28;51146;-47
2023/02/15 07:39:50;;;;;;;;;66.75;51.25;;;;;;;;5041844;28;51819;-51
2023/02/15 07:42:35;;;;;;;;;63.75;49.75;;;;;;;;5042315;28;51725;-51
2023/02/15 07:45:19;;;;;;;;;64.25;48.75;;;;;;;;5041519;28;52542;-53
2023/02/15 07:48:04;;;;;;;;;63.00;48.25;;;;;;;;5040562;28;51378;-49
2023/02/15 07:50:48;;;;;;;;;70.00;55.00;;;;;;;;5046684;28;51107;-52
2023/02/15 07:53:37;;;;;;;;;64.75;52.00;;;;;;;;5045482;28;51813;-57
2023/02/15 07:56:21;;;;;;;;;60.50;48.00;;;;;;;;5046423;28;51280;-52
2023/02/15 07:59:07;;;;;;;;;61.00;47.75;;;;;;;;5045893;28;51121;-53
2023/02/15 08:01:53;;;;;;;;;64.25;49.75;;;;;;;;5040130;28;51876;-50
2023/02/15 08:04:39;;;;;;;;;59.75;45.50;;;;;;;;5045220;28;51636;-52
2023/02/15 08:07:23;;;;;;;;;60.00;46.50;;;;;;;;5037574;28;51387;-50
2023/02/15 08:10:07;;;;;;;;;56.75;45.25;;;;;;;;5040161;28;51101;-54
2023/02/15 08:12:52;;;;;;;;;61.75;47.00;;;;;;;;5044339;28;51114;-52
2023/02/15 08:15:36;;;;;;;;;61.50;49.00;;;;;;;;5040881;28;51285;-53
2023/02/15 08:18:20;;;;;;;;;61.00;45.00;;;;;;;;5038132;28;51376;-53
2023/02/15 08:21:05;;;;;;;;;59.50;45.50;;;;;;;;5042543;28;51098;-55
2023/02/15 08:23:49;;;;;;;;;60.50;45.25;;;;;;;;5046876;28;51089;-53
2023/02/15 08:26:34;;;;;;;;;55.00;43.25;;;;;;;;5039989;28;51149;-53
2023/02/15 08:29:22;;;;;;;;;56.50;45.50;;;;;;;;5040260;28;51082;-53
2023/02/15 08:32:08;;;;;;;;;57.00;44.00;;;;;;;;5042239;28;51165;-55
2023/02/15 08:34:53;;;;;;;;;58.75;47.00;;;;;;;;5043191;28;52421;-55
2023/02/15 08:37:37;;;;;;;;;59.75;45.25;;;;;;;;5048096;28;51171;-51
2023/02/15 08:40:22;;;;;;;;;58.00;45.75;;;;;;;;5041966;28;51235;-54
2023/02/15 08:43:06;;;;;;;;;61.75;47.00;;;;;;;;5039128;28;51530;-51
2023/02/15 08:45:51;;;;;;;;;60.25;47.25;;;;;;;;5043752;28;51320;-54
2023/02/15 08:48:36;;;;;;;;;58.00;46.25;;;;;;;;5044122;28;51279;-54
2023/02/15 08:51:21;;;;;;;;;56.50;44.50;;;;;;;;5040699;28;51603;-52
2023/02/15 08:54:08;;;;;;;;;57.75;44.00;;;;;;;;5039157;28;51051;-53
2023/02/15 08:56:52;;;;;;;;;59.00;46.00;;;;;;;;5043117;28;51159;-50
2023/02/15 08:59:37;;;;;;;;;54.75;45.25;;;;;;;;5044757;28;51168;-51
2023/02/15 09:02:21;;;;;;;;;54.75;44.25;;;;;;;;5038361;28;51357;-55
2023/02/15 09:05:06;;;;;;;;;56.75;45.00;;;;;;;;5039559;28;51172;-53
2023/02/15 09:07:50;;;;;;;;;59.50;44.00;;;;;;;;5039514;28;51132;-52
2023/02/15 09:10:35;;;;;;;;;62.50;48.00;;;;;;;;5042416;28;52227;-56
2023/02/15 09:13:20;;;;;;;;;56.75;44.75;;;;;;;;5046533;28;51160;-55
2023/02/15 09:16:08;;;;;;;;;59.75;45.50;;;;;;;;5039347;28;51087;-52
2023/02/15 09:18:53;;;;;;;;;58.25;47.00;;;;;;;;5042985;28;51668;-55
2023/02/15 09:21:38;;;;;;;;;44.25;32.25;;;;;;;;5043644;28;51226;-50
2023/02/15 09:24:22;;;;;;;;;57.50;46.00;;;;;;;;5043696;28;51760;-55
2023/02/15 09:27:06;;;;;;;;;59.00;47.75;;;;;;;;5043435;28;51161;-54
2023/02/15 09:29:51;;;;;;;;;60.00;48.00;;;;;;;;5046420;28;51126;-52
2023/02/15 09:32:35;;;;;;;;;56.75;44.25;;;;;;;;5044809;28;51256;-53
2023/02/15 09:35:20;;;;;;;;;59.00;44.75;;;;;;;;5050108;28;51427;-52
2023/02/15 09:38:04;;;;;;;;;59.00;46.50;;;;;;;;5048547;28;51240;-54
2023/02/15 09:41:14;;;;;;;;;58.25;45.75;;;;;;;;5045595;28;51208;-54
2023/02/15 09:44:11;;;;;;;;;58.50;45.25;;;;;;;;5044878;28;51604;-52
2023/02/15 09:46:55;;;;;;;;;53.00;40.50;;;;;;;;5049904;28;52033;-51
2023/02/15 09:49:58;;;;;;;;;58.00;44.00;;;;;;;;5051216;28;51285;-52
2023/02/15 09:56:19;;;;;;;;;57.75;45.25;;;;;;;;5044188;28;51165;-53
2023/02/15 09:59:11;;;;;;;;;57.25;44.50;;;;;;;;5040201;28;51803;-50
2023/02/15 10:01:59;;;;;;;;;57.75;44.50;;;;;;;;5048332;28;51364;-54
2023/02/15 10:04:46;;;;;;;;;56.50;44.75;;;;;;;;5051200;28;51026;-54
2023/02/15 10:07:31;;;;;;;;;54.25;42.50;;;;;;;;5048735;28;51042;-51
2023/02/15 10:10:22;;;;;;;;;52.50;43.25;;;;;;;;5049959;28;51203;-49
2023/02/15 10:13:16;;;;;;;;;55.25;41.50;;;;;;;;5050960;28;51563;-51
2023/02/15 10:16:23;;;;;;;;;53.00;43.00;;;;;;;;5046460;28;51093;-50
2023/02/15 10:19:18;;;;;;;;;52.75;41.50;;;;;;;;5054478;28;51197;-49
2023/02/15 10:22:22;;;;;;;;;52.25;40.00;;;;;;;;5048856;28;51090;-53
2023/02/15 10:25:11;;;;;;;;;52.25;41.00;;;;;;;;5045677;28;51586;-48
2023/02/15 10:27:59;;;;;;;;;54.50;40.75;;;;;;;;5053952;28;51192;-53
2023/02/15 10:30:48;;;;;;;;;53.75;41.75;;;;;;;;5048287;28;51153;-51
2023/02/15 10:33:43;;;;;;;;;58.25;41.75;;;;;;;;5047894;28;51252;-57
2023/02/15 10:36:30;;;;;;;;;48.25;39.00;;;;;;;;5048883;28;51115;-53
2023/02/15 10:39:20;;;;;;;;;52.25;40.00;;;;;;;;5051031;28;51165;-54
2023/02/15 10:42:05;;;;;;;;;55.25;41.75;;;;;;;;5046712;28;51078;-54
2023/02/15 10:44:55;;;;;;;;;49.50;37.00;;;;;;;;5046471;28;51488;-52
2023/02/15 10:47:57;;;;;;;;;47.25;38.75;;;;;;;;5050617;28;51133;-52
2023/02/15 10:50:53;;;;;;;;;50.50;40.50;;;;;;;;4976588;28;51236;-53
2023/02/15 10:53:38;;;;;;;;;49.00;40.00;;;;;;;;4979159;28;51178;-55
2023/02/15 10:56:26;;;;;;;;;51.75;40.25;;;;;;;;4975797;28;51251;-53
2023/02/15 10:59:27;;;;;;;;;49.75;38.50;;;;;;;;4976425;28;51240;-54
2023/02/15 11:02:22;;;;;;;;;50.50;37.00;;;;;;;;4977348;28;51225;-53
2023/02/15 11:05:25;;;;;;;;;49.50;36.50;;;;;;;;4974821;28;51336;-51
2023/02/15 11:08:11;;;;;;;;;49.50;37.75;;;;;;;;4977173;28;51618;-57
2023/02/15 11:11:01;;;;;;;;;49.25;37.75;;;;;;;;4976594;28;51271;-50
2023/02/15 11:13:49;;;;;;;;;46.25;37.50;;;;;;;;4980102;28;51382;-53
2023/02/15 11:16:36;;;;;;;;;48.75;35.75;;;;;;;;4975586;28;52280;-49
2023/02/15 11:19:31;;;;;;;;;52.50;38.75;;;;;;;;4973227;28;51252;-51
2023/02/15 11:22:15;;;;;;;;;47.00;36.25;;;;;;;;4977612;28;51097;-55
2023/02/15 11:25:00;;;;;;;;;49.50;38.50;;;;;;;;4976802;28;51236;-55
2023/02/15 11:27:48;;;;;;;;;47.25;38.50;;;;;;;;5016906;28;51085;-55
2023/02/15 11:30:44;;;;;;;;;46.50;37.75;;;;;;;;5045874;28;51114;-51
2023/02/15 11:33:30;;;;;;;;;44.00;36.00;;;;;;;;5046421;28;51185;-53
2023/02/15 11:36:36;;;;;;;;;47.50;36.00;;;;;;;;5046649;28;51426;-51
2023/02/15 11:39:21;;;;;;;;;48.50;36.50;;;;;;;;5049877;28;51291;-53
2023/02/15 11:42:10;;;;;;;;;45.75;36.50;;;;;;;;5050759;28;51712;-51
2023/02/15 11:44:57;;;;;;;;;44.50;34.50;;;;;;;;5050042;28;51212;-52
2023/02/15 11:47:42;;;;;;;;;41.75;35.00;;;;;;;;5043952;28;51695;-54
2023/02/15 11:50:28;;;;;;;;;47.25;36.25;;;;;;;;5048300;28;52042;-50
2023/02/15 11:53:21;;;;;;;;;44.75;36.50;;;;;;;;5045907;28;51101;-52
2023/02/15 11:56:12;;;;;;;;;44.75;37.75;;;;;;;;5041119;28;51285;-50
2023/02/15 11:59:01;;;;;;;;;41.25;34.50;;;;;;;;5045264;28;51124;-51
2023/02/15 12:01:46;;;;;;;;;43.50;34.75;;;;;;;;5046872;28;51465;-51
2023/02/15 12:04:38;;;;;;;;;43.25;37.00;;;;;;;;5048037;28;51140;-53
2023/02/15 12:07:32;;;;;;;;;43.50;35.25;;;;;;;;5046745;28;51148;-50
2023/02/15 12:10:18;;;;;;;;;47.25;36.75;;;;;;;;5044402;28;51373;-49
2023/02/15 12:13:16;;;;;;;;;48.75;38.50;;;;;;;;5047979;28;51440;-54
2023/02/15 12:16:06;;;;;;;;;45.25;35.25;;;;;;;;5050493;28;51405;-50
2023/02/15 12:18:52;;;;;;;;;44.75;35.50;;;;;;;;5048115;28;52829;-51
2023/02/15 12:21:41;;;;;;;;;50.00;37.50;;;;;;;;5038610;28;51137;-53
2023/02/15 12:24:27;;;;;;;;;42.50;35.00;;;;;;;;5039836;28;51225;-52
2023/02/15 12:27:16;;;;;;;;;44.50;34.00;;;;;;;;5049519;28;51074;-50
2023/02/15 12:30:03;;;;;;;;;43.00;36.00;;;;;;;;5046537;28;51344;-53
2023/02/15 12:32:56;;;;;;;;;48.00;36.25;;;;;;;;5047378;28;51527;-49
2023/02/15 12:35:40;;;;;;;;;44.25;34.50;;;;;;;;5041822;28;51265;-53
2023/02/15 12:38:25;;;;;;;;;45.50;35.50;;;;;;;;5042678;28;51339;-52
2023/02/15 12:41:24;;;;;;;;;44.50;35.00;;;;;;;;5045635;28;51108;-54
2023/02/15 12:44:19;;;;;;;;;46.50;35.75;;;;;;;;5044341;28;51558;-51
2023/02/15 12:47:18;;;;;;;;;44.50;35.25;;;;;;;;5046564;28;51278;-53
2023/02/15 12:50:11;;;;;;;;;41.75;34.50;;;;;;;;5043386;28;51245;-54
2023/02/15 12:53:06;;;;;;;;;45.00;34.50;;;;;;;;5041597;28;51175;-50
2023/02/15 12:55:52;;;;;;;;;34.50;29.50;;;;;;;;5058195;28;51190;-52
2023/02/15 12:58:37;;;;;;;;;46.75;35.75;;;;;;;;5059674;28;51534;-53
2023/02/15 13:01:24;;;;;;;;;45.00;36.75;;;;;;;;5048097;28;51036;-51
2023/02/15 13:04:28;;;;;;;;;42.00;35.50;;;;;;;;5057151;28;51201;-51
2023/02/15 13:07:13;;;;;;;;;43.50;33.50;;;;;;;;5058926;28;51427;-53
2023/02/15 13:09:58;;;;;;;;;45.50;38.00;;;;;;;;5058608;28;51499;-55
2023/02/15 13:12:46;;;;;;;;;48.00;37.00;;;;;;;;5049094;28;51091;-51
2023/02/15 13:15:38;;;;;;;;;43.75;36.75;;;;;;;;5059556;28;51085;-51
2023/02/15 13:18:31;;;;;;;;;43.50;36.00;;;;;;;;5053080;28;51150;-52
2023/02/15 13:21:18;;;;;;;;;41.00;32.75;;;;;;;;5038693;28;51206;-50
2023/02/15 13:24:06;;;;;;;;;50.25;36.25;;;;;;;;5038566;28;51016;-48
2023/02/15 13:26:52;;;;;;;;;46.00;34.75;;;;;;;;5057925;28;51179;-52
2023/02/15 13:29:38;;;;;;;;;47.50;34.50;;;;;;;;5058928;28;51337;-53
2023/02/15 13:32:28;;;;;;;;;48.50;35.50;;;;;;;;5039738;28;51281;-55
2023/02/15 13:35:16;;;;;;;;;44.50;33.75;;;;;;;;5038955;28;51054;-53
2023/02/15 13:38:06;;;;;;;;;41.00;34.75;;;;;;;;5038753;28;51154;-51
2023/02/15 13:40:56;;;;;;;;;42.25;31.75;;;;;;;;5039453;28;51137;-52
2023/02/15 13:44:10;;;;;;;;;40.50;30.50;;;;;;;;5038833;28;51428;-53
2023/02/15 13:50:31;;;;;;;;;37.25;31.75;;;;;;;;5028677;28;51223;-56
2023/02/15 13:53:19;;;;;;;;;33.50;30.00;;;;;;;;5055280;28;51013;-47
2023/02/15 13:56:13;;;;;;;;;43.75;31.25;;;;;;;;5058903;28;51075;-54
2023/02/15 13:58:57;;;;;;;;;36.75;30.00;;;;;;;;5059000;28;51255;-54
2023/02/15 14:02:20;;;;;;;;;34.75;29.50;;;;;;;;5035413;28;51558;-51
2023/02/15 14:05:28;;;;;;;;;42.75;30.75;;;;;;;;5036288;28;51234;-51
2023/02/15 14:08:12;;;;;;;;;43.00;31.25;;;;;;;;5035451;28;51231;-50
2023/02/15 14:10:59;;;;;;;;;41.00;31.25;;;;;;;;5036139;28;51607;-53
2023/02/15 14:13:44;;;;;;;;;34.75;30.75;;;;;;;;5036338;28;51271;-54
2023/02/15 14:16:33;;;;;;;;;26.25;17.75;;;;;;;;5037677;28;51600;-53
2023/02/15 14:19:17;;;;;;;;;41.00;33.25;;;;;;;;5041784;28;51242;-55
2023/02/15 14:22:13;;;;;;;;;40.75;32.25;;;;;;;;5039593;28;51087;-51
2023/02/15 14:25:12;;;;;;;;;43.75;32.75;;;;;;;;5039686;28;51107;-54
2023/02/15 14:28:14;;;;;;;;;38.00;31.00;;;;;;;;5034821;28;51625;-46
2023/02/15 14:30:58;;;;;;;;;38.50;31.00;;;;;;;;5039572;28;51276;-53
2023/02/15 14:33:47;;;;;;;;;35.75;30.00;;;;;;;;5026705;28;51188;-54
2023/02/15 14:36:31;;;;;;;;;43.75;32.00;;;;;;;;5039439;28;51124;-52
2023/02/15 14:42:24;;;;;;;;;31.25;29.50;;;;;;;;5060126;28;51122;-54
2023/02/15 14:48:06;;;;;;;;;42.50;30.75;;;;;;;;4999360;28;51605;-53
2023/02/15 14:50:50;;;;;;;;;33.75;31.25;;;;;;;;4997100;28;51080;-54
2023/02/15 14:53:38;;;;;;;;;44.75;32.75;;;;;;;;5000323;28;51656;-54
2023/02/15 14:56:22;;;;;;;;;30.25;27.25;;;;;;;;4995942;28;51184;-55
2023/02/15 14:59:23;;;;;;;;;43.25;32.50;;;;;;;;4999756;28;51193;-51
2023/02/15 15:02:07;;;;;;;;;35.75;32.00;;;;;;;;4999032;28;51421;-54
2023/02/15 15:04:51;;;;;;;;;48.50;32.75;;;;;;;;4997368;28;51251;-49
2023/02/15 15:07:39;;;;;;;;;38.50;29.50;;;;;;;;4997544;28;51166;-53
2023/02/15 15:10:23;;;;;;;;;40.75;33.75;;;;;;;;4999957;28;51193;-52
2023/02/15 15:13:26;;;;;;;;;30.75;29.25;;;;;;;;4996030;28;51600;-53
2023/02/15 15:18:56;;;;;;;;;41.25;33.50;;;;;;;;4957412;28;51223;-54
2023/02/15 15:21:46;;;;;;;;;42.00;32.25;;;;;;;;4963291;28;51275;-50
2023/02/15 15:24:53;;;;;;;;;42.50;34.25;;;;;;;;4943458;28;51254;-52
2023/02/15 15:27:50;;;;;;;;;44.00;35.50;;;;;;;;4959260;28;51200;-53
2023/02/15 15:30:51;;;;;;;;;42.00;32.50;;;;;;;;4916593;28;51216;-49
2023/02/15 15:33:52;;;;;;;;;42.75;33.50;;;;;;;;4920963;28;51223;-50
2023/02/15 15:36:49;;;;;;;;;42.75;34.25;;;;;;;;4920803;28;51146;-53
2023/02/15 15:39:52;;;;;;;;;38.75;33.00;;;;;;;;4920588;28;51488;-56
2023/02/15 15:42:39;;;;;;;;;33.75;28.00;;;;;;;;4920706;28;51385;-54
2023/02/15 15:45:41;;;;;;;;;38.25;32.25;;;;;;;;4920417;28;51202;-53
2023/02/15 15:48:30;;;;;;;;;46.00;34.75;;;;;;;;4920347;28;51082;-52
2023/02/15 15:51:18;;;;;;;;;40.75;33.25;;;;;;;;4920159;28;51216;-55
2023/02/15 15:54:03;;;;;;;;;43.25;33.75;;;;;;;;4919721;28;51215;-55
2023/02/15 15:56:51;;;;;;;;;43.50;32.75;;;;;;;;4964291;28;51250;-54
2023/02/15 15:59:35;;;;;;;;;46.75;34.75;;;;;;;;4978442;28;51269;-53
2023/02/15 16:02:20;;;;;;;;;35.00;27.00;;;;;;;;4978236;28;51053;-54
2023/02/15 16:05:08;;;;;;;;;45.75;33.25;;;;;;;;5012503;28;51462;-54
2023/02/15 16:07:52;;;;;;;;;34.75;27.25;;;;;;;;5053279;28;51011;-52
2023/02/15 16:13:23;;;;;;;;;43.75;33.50;;;;;;;;4995621;28;51192;-51
2023/02/15 16:16:07;;;;;;;;;47.25;35.00;;;;;;;;4999000;28;52013;-50
2023/02/15 16:18:51;;;;;;;;;43.50;34.25;;;;;;;;4997722;28;51965;-52
2023/02/15 16:21:36;;;;;;;;;44.25;36.00;;;;;;;;4998005;28;51198;-51
2023/02/15 16:24:36;;;;;;;;;40.00;33.00;;;;;;;;5000062;28;51113;-54
2023/02/15 16:27:21;;;;;;;;;42.50;31.50;;;;;;;;4997876;28;51490;-50
2023/02/15 16:33:02;;;;;;;;;41.50;33.75;;;;;;;;4978104;28;51158;-54
2023/02/15 16:35:59;;;;;;;;;45.75;33.00;;;;;;;;4977767;28;51234;-56
2023/02/15 16:38:50;;;;;;;;;46.00;34.75;;;;;;;;4969786;28;51222;-50
2023/02/15 16:41:35;;;;;;;;;42.00;33.75;;;;;;;;4978621;28;51195;-52
2023/02/15 16:44:20;;;;;;;;;47.50;34.50;;;;;;;;4963185;28;51250;-54
2023/02/15 16:47:07;;;;;;;;;43.50;33.50;;;;;;;;4968723;28;51135;-49
2023/02/15 16:49:53;;;;;;;;;40.50;33.25;;;;;;;;4981043;28;51208;-54
2023/02/15 16:52:37;;;;;;;;;40.50;32.50;;;;;;;;5016915;28;51337;-52
2023/02/15 16:55:23;;;;;;;;;43.25;33.50;;;;;;;;5009535;28;51449;-49
2023/02/15 16:58:12;;;;;;;;;46.00;35.25;;;;;;;;5016479;28;51145;-56
2023/02/15 17:00:58;;;;;;;;;38.50;32.50;;;;;;;;5016898;28;51196;-50
2023/02/15 17:03:42;;;;;;;;;45.00;35.00;;;;;;;;5009779;28;51198;-52
2023/02/15 17:06:29;;;;;;;;;47.00;37.25;;;;;;;;5001959;28;51121;-50
2023/02/15 17:09:48;;;;;;;;;45.50;36.00;;;;;;;;5011386;28;51233;-52
2023/02/15 17:12:57;;;;;;;;;46.50;37.25;;;;;;;;5037321;28;51666;-49
2023/02/15 17:16:04;;;;;;;;;46.50;35.25;;;;;;;;5045173;28;51480;-55